Timeline UpdatesTrip UpdatesNews PostsPvt PostsTravel TipsAdmin PostsConv PostsFollowed PostsChat RequestsBlog PostsPNR Posts

Disclaimer
Search
 
 
Fri Apr 18, 2014 11:06:09 ISTHomeTrainsΣChainsAtlasPNRForumGalleryNewsFAQTripsMembersLoginFeedback
No Recent News for this Train
Other Trains in the News **new
Latest...
.
Wed Oct 10, 2012 (01:42PM)
⇐ Return Journey: Train# 59356

59355/Ratlam Mathura Passenger (UnReserved)

Sep 11 2013 (10:51PM)
Change Departure Station:
Change Arrival Station:
Post a Train Travel TipPost a Train Travel Tip **new
Post a Comment/Question/Picture/VideoPost a Comment/Question/Picture/Video
Pantry/Catering
✕ NO Pantry Car
✕ NO Catering
RSA - Rake Sharing
Rake/Coach Composition
Loco
WAM 4 (BRC)
News    PNR    Forum    Time-Table    Availability    Fare Chart    Map    Arr/Dep History    Trips    Gallery    ΣChains    X/O    Timeline    
Travel Time: 12h 59m    54 halts    Distance: 506 km    Avg Speed: 38 km/hr
Type: Passenger
Zone: WR/Western
Departs @ 07:00 (Avg 7m late)
Platform# 6
SMTWTFS
Ratlam Junction/RTM 
Arrives @ 19:59 (Avg 42m late)
Platform# ???
SMTWTFS
Dumariya/DY 

54 halts. 65 intermediate Stations between Ratlam Junction and Dumariya

Show ALL intermediate Stations  Show Old Time-Table

#CodeStation NameX/OArrivesAvgDepartsAvgHaltPFDay#KmSpeedElevZoneAddress
1RTM»Ratlam Junction (7)»  -07:00+7610.049495mWRRatlam, Madhya Pradesh
2BODBangrod  07:12+1007:13+141m--19.855484mWRRatlam, Madhya Pradesh
3RNHRunkheraX  07:21+1507:22+151m--117.157478mWRUjjain, Madhya Pradesh
4KUHKhachrod (2)X  07:33+1407:35+282m--127.616497mWRUjjain, Madhya Pradesh
5BRNABerawanyaO  07:56+1607:58+232m--133.312496mWRUjjain, Madhya Pradesh
6NADNagda Junction (4)X  08:40+108:45+65m--141.470468mWRNagda, Madhya Pradesh
7RLKRohal Khurd  08:54+1008:55+101m--151.944499mWCRNagda, Madhya Pradesh
8MEPMahidpur Road  09:04+809:05+91m--158.571493mWCRGogapur, Madhya Pradesh
9LNRLuni RichhaX  09:14+1009:15+101m--169.188471mWCRAlote, Madhya Pradesh
10VMAVikramgarh Alot (2)X  09:24+1209:25+141m2182.451443mWCRKota Division, Madhya Pradesh
11THURThuriaX  09:34+1409:35+181m--190.060430mWCRMDR 45, Madhya Pradesh
12TLZTalavli (2)X  09:44+1709:45+181m--199.035442mWCRMDR 45, Madhya Pradesh
13CMUChau Mahla (3)X  09:54+1609:55+181m21104.265426mWCRJhalawar, Rajasthan
14NKHNathukheri  10:04+1810:05+181m--1113.938439mWCRMDR 45, Madhya Pradesh
15SVASuwasra (2)  10:14+1610:15+181m--1119.668450mWCRSuwasra, Madhya Pradesh
16HNUHanspuraX  10:21+2010:22+201m--1126.333476mWCRMandsaur, Madhya Pradesh
17SGZShamgarh (3)  10:34+1810:35+331m--1133.059463mWCRMandsaur, Madhya Pradesh
18GOHGaroth (2)O  10:46+3310:47+371m21143.865441mWCRMadhya Pradesh 458880, Madhya Pradesh
19KRLSKurlas  10:56+3810:57+401m--1153.635417mWCRGarot, Madhya Pradesh
20BWMBhawani Mandi (3)  11:19+2811:20+371m--1166.567384mWCRBhawani Mandi, Madhya Pradesh
21DKRADhuankheriX  11:29+3811:30+391m--1176.642358mWCRBhawani Mandi, Madhya Pradesh
22JHWJhalawar Road (3)  11:39+3811:40+411m--1183.053361mWCRJhalawar City, Rajasthan
23RMARamganj Mandi Junction (3)X  11:54+3811:55+421m--1195.339358mWCRRamganj Mandi, Rajasthan
24MKXMorak (2)  12:09+3912:10+401m--1204.439337mWCRMorak, Rajasthan
25KIWKanwalpuraO  12:19+3812:20+381m--1210.259324mWCRNH 12, Rajasthan
26DARADara  12:29+3912:30+401m--1219.155354mWCRDara, Rajasthan
27RDTRavtha Road  12:44+3612:45+371m--1231.951366mWCRNational Highway 12, Rajasthan
28ALNIAlniyaX  12:59+3513:00+381m--1243.846334mWCRNH 12, Rajasthan
29DDVDadhdeviXO  13:09+3813:10+411m--1250.629308mWCRNH 12, Rajasthan
30DKNTDakaniya Talav (2)X  13:24+3513:25+371m11257.311278mWCRKota, Rajasthan
31KOTAKota Junction (5)  14:15+914:20+155m11266.636256mWCRKota, Rajasthan
32GQLGurla  14:29+1914:30+201m--1272.053251mWCRSH 33, Rajasthan
33KPTNKeshorai PatanX  14:39+1914:40+211m--1280.073243mWCRSH 33, Rajasthan
34AREArnetha  14:49+2214:50+231m--1290.961239mWCRShreepura, Rajasthan
35KPZKaprenX  14:59+2315:00+281m--1300.167234mWCRKota - Lalsot Mega Highway, Rajasthan
36GKBGhataka VaranaX  15:09+2915:10+311m--1310.162232mWCRSH 33, Rajasthan
37LBNLaban (2)XO  15:19+3215:20+361m--1319.516225mWCRBundi, Rajasthan
38LKELakheri (3)  15:49+1715:50+201m--1327.060228mWCRBundi, Rajasthan
39IDGIndargarh Sumerganj Mandi (2)  16:01+2116:02+241m--1338.078247mWCRIndargarh, Rajasthan
40AMLIAmli  16:12+2416:13+251m--1351.165233mWCRSawai Madhopur, Rajasthan
41RWJRawania DungarX  16:20+2516:21+321m--1358.756266mWCRSawai Madhopur, Rajasthan
42KTAKushtalaXO  16:30+3216:31+341m--1367.215283mWCRNH 116, Rajasthan
43SWMSawai Madhopur Junction (4)X  16:59+2117:00+271m--1374.368266mWCRSawai Madhopur, Rajasthan
44RNTRanthambhore  17:09+2717:10+291m--1384.561248mWCRMDR 111, Rajasthan
45MXLMokholi  17:19+2717:20+271m--1393.772242mWCRMDR 111, Rajasthan
46MLZMalarna  17:29+2817:30+311m--1404.548236mWCRSawai Madhopur, Rajasthan
47NMDNomodaX  17:39+3017:40+301m--1411.641238mWCRMDR 111, Rajasthan
48NNWNarayanpur Tatwara (2)X  17:54+2617:55+271m--1421.371256mWCRSawai Madhopur, Rajasthan
49LRULalpur Umri  18:04+2918:05+321m--1431.915276mWCRSH 1, Rajasthan
50GGCGangapur City (3)X  18:30+1918:35+265m--1438.255270mWCRGangapur, Rajasthan
51COOChhoti Odai  18:49+2818:50+281m--1450.953257mWCRSH 25, Rajasthan
52PDZPiliodaX  18:59+2919:00+301m--1458.854247mWCRSH 1, Rajasthan
53SMBJShri Mahabirji (3)  19:15+3019:16+331m--1472.334240mWCRKarauli, Rajasthan
54HANHindaun City (2)X  19:34+2819:35+391m--1482.557230mWCRKarauli, Rajasthan
55FSPFateh SinghpuraX  19:49+4219:50+421m--1495.771223mWCRState Highway 1, Rajasthan
56DY•Dumariya (2)•X  19:59+4220:00+431m--1506.314211mWCRState Highway 1, Rajasthan
57BXNBayana Junction (3)  20:40+2020:50+2410m--1515.338198mWCRBayana, Rajasthan
58KEVKela Devi  21:09+2121:10+221m--1527.377193mWCRBharatpur, Rajasthan
59PNGRPingora  21:17+2321:18+231m--1536.362191mWCRSH 1, Rajasthan
60SWARSewarX  21:29+2321:30+231m--1547.620183mWCRBharatpur, Rajasthan
61BTEBharatpur Junction (5)  22:00+1022:10+1310m41557.355174mWCRBharatpur, Rajasthan
62DUMDhaurmui Jaghina  22:19+1522:20+151m--1565.640180mWCRState Highway 33, Rajasthan
63JJAJajan Patti  22:32+1322:33+141m--1573.672181mWCRState Highway 33, Rajasthan
64MSRPMurhesi Rampur (2)  22:40+922:41+121m--1582.012182mWCRSH 33, Uttar Pradesh
65MTJMathura Junction (10)  23:25+17---1590.9-179mNCRMathura, Uttar Pradesh
Scroll to Top
Scroll to Bottom